CheckWX is a tool to help pilots better visualize weather data.  It is not intended as a substitute for an official pre-flight weather briefing.

08:19:46 UTC

DTTG METAR
Gabès Matmata International Airport
Gabès, Tunisia
Current

20 mins ago

DTTG 030800Z 05012KT 5000 BKN030 16/13 Q1007 NOSIG
Observed
Apr-3 @ 08:00 UTC
Wind
  • 050° at 12 KTS
Visibility
5005 meters
Flight Rules
MVFR
Cloud Levels
  • Broken at 3,000' AGL
Temperature
16°C / 61°F
Dewpoint
13°C / 55°F
Humidity
83%
Altimeter
29.73" Hg
Pressure
1006.92 hPa
Previous

1 hour ago

DTTG 030700Z 05012KT 5000 BKN030 16/13 Q1006 NOSIG
Observed
Apr-3 @ 07:00 UTC
Wind
  • 050° at 12 KTS
Visibility
5005 meters
Flight Rules
MVFR
Cloud Levels
  • Broken at 3,000' AGL
Temperature
16°C / 61°F
Dewpoint
13°C / 55°F
Humidity
83%
Altimeter
29.7" Hg
Pressure
1005.92 hPa
Previous

2 hours ago

DTTG 030600Z 03012KT 8000 SCT030 15/13 Q1007 NOSIG
Observed
Apr-3 @ 06:00 UTC
Wind
  • 030° at 12 KTS
Visibility
7998 meters
Flight Rules
MVFR
Cloud Levels
  • Scattered at 3,000' AGL
Temperature
15°C / 59°F
Dewpoint
13°C / 55°F
Humidity
88%
Altimeter
29.73" Hg
Pressure
1006.92 hPa